createdAt,value
2023-03-28T00:00:51.190Z,7.00
2023-03-28T00:03:22.510Z,7.10
2023-03-28T00:05:51.330Z,7.30
2023-03-28T00:08:18.642Z,7.30
2023-03-28T00:10:45.916Z,7.00
2023-03-28T00:13:14.161Z,7.30
2023-03-28T00:15:42.505Z,6.90
2023-03-28T00:18:12.781Z,6.80
2023-03-28T00:20:45.181Z,6.80
2023-03-28T00:23:12.325Z,6.80
2023-03-28T00:25:41.691Z,6.90
2023-03-28T00:28:08.855Z,7.00
2023-03-28T00:30:35.964Z,6.90
2023-03-28T00:33:05.219Z,7.10
2023-03-28T00:35:32.800Z,6.90
2023-03-28T00:37:59.532Z,7.20
2023-03-28T00:40:27.120Z,7.20
2023-03-28T00:42:54.376Z,6.80
2023-03-28T00:45:24.038Z,7.00
2023-03-28T00:47:54.729Z,7.10
2023-03-28T00:50:29.027Z,7.10
2023-03-28T00:53:05.631Z,6.80
2023-03-28T00:55:48.305Z,7.10
2023-03-28T00:58:22.347Z,7.00
2023-03-28T01:00:50.722Z,7.00
2023-03-28T01:03:19.611Z,6.90
2023-03-28T01:05:47.926Z,6.70
2023-03-28T01:08:23.484Z,6.80
2023-03-28T01:10:50.777Z,6.60
2023-03-28T01:13:20.599Z,6.60
2023-03-28T01:15:51.263Z,7.00
2023-03-28T01:18:22.564Z,6.80
2023-03-28T01:21:07.531Z,6.80
2023-03-28T01:24:10.838Z,6.90
2023-03-28T01:26:43.565Z,6.70
2023-03-28T01:30:00.976Z,6.70
2023-03-28T01:33:05.324Z,6.80
2023-03-28T01:36:02.974Z,6.50
2023-03-28T01:38:51.909Z,6.60
2023-03-28T01:41:30.639Z,6.30
2023-03-28T01:44:10.881Z,6.40
2023-03-28T01:46:43.540Z,6.40
2023-03-28T01:49:16.662Z,6.50
2023-03-28T01:51:59.616Z,6.30
2023-03-28T01:54:50.229Z,6.60
2023-03-28T01:57:30.943Z,6.40
2023-03-28T02:00:06.478Z,6.50
2023-03-28T02:02:43.877Z,6.50
2023-03-28T02:05:15.617Z,6.40
2023-03-28T02:07:44.288Z,6.20
2023-03-28T02:10:14.202Z,6.30
2023-03-28T02:12:45.958Z,6.30
2023-03-28T02:15:17.457Z,6.40
2023-03-28T02:17:50.189Z,6.40
2023-03-28T02:20:22.652Z,6.20
2023-03-28T02:23:04.885Z,6.30
2023-03-28T02:25:32.214Z,6.30
2023-03-28T02:28:02.854Z,6.10
2023-03-28T02:30:30.053Z,6.00
2023-03-28T02:33:01.271Z,6.10
2023-03-28T02:35:41.192Z,6.20
2023-03-28T02:38:24.448Z,6.40
2023-03-28T02:41:00.417Z,6.00
2023-03-28T02:44:09.858Z,5.90
2023-03-28T02:47:06.676Z,6.10
2023-03-28T02:49:57.646Z,6.10
2023-03-28T02:52:51.963Z,5.90
2023-03-28T02:55:33.592Z,5.80
2023-03-28T02:58:29.537Z,5.90
2023-03-28T03:00:56.669Z,5.70
2023-03-28T03:03:23.873Z,5.50
2023-03-28T03:05:50.674Z,5.80
2023-03-28T03:08:17.379Z,5.50
2023-03-28T03:10:44.102Z,5.70
2023-03-28T03:13:10.860Z,5.30
2023-03-28T03:15:37.644Z,5.70
2023-03-28T03:18:04.630Z,5.40
2023-03-28T03:20:33.488Z,5.30
2023-03-28T03:23:01.632Z,5.40
2023-03-28T03:25:31.289Z,5.40
2023-03-28T03:27:58.112Z,5.30
2023-03-28T03:30:24.828Z,5.50
2023-03-28T03:32:51.551Z,5.30
2023-03-28T03:35:20.108Z,5.30
2023-03-28T03:37:47.294Z,5.20
2023-03-28T03:40:14.048Z,5.50
2023-03-28T03:42:41.079Z,5.10
2023-03-28T03:45:09.405Z,5.30
2023-03-28T03:47:36.574Z,5.30
2023-03-28T03:50:03.596Z,5.30
2023-03-28T03:52:30.813Z,5.30
2023-03-28T03:54:58.003Z,5.10
2023-03-28T03:57:24.782Z,5.00
2023-03-28T03:59:52.308Z,5.20
2023-03-28T04:02:19.400Z,5.20
2023-03-28T04:04:47.760Z,5.10
2023-03-28T04:07:14.763Z,4.90
2023-03-28T04:09:41.537Z,5.20
2023-03-28T04:12:08.505Z,5.20
2023-03-28T04:14:35.335Z,5.00
2023-03-28T04:17:04.510Z,5.00
2023-03-28T04:19:31.287Z,5.30
2023-03-28T04:21:59.209Z,5.20
2023-03-28T04:24:25.927Z,5.20
2023-03-28T04:26:56.072Z,5.30
2023-03-28T04:29:31.543Z,5.40
2023-03-28T04:32:00.593Z,5.30
2023-03-28T04:34:31.818Z,5.20
2023-03-28T04:37:05.178Z,5.20
2023-03-28T04:39:38.783Z,5.30
2023-03-28T04:42:07.461Z,5.10
2023-03-28T04:44:35.446Z,5.10
2023-03-28T04:47:02.320Z,5.40
2023-03-28T04:49:29.006Z,5.50
2023-03-28T04:51:55.843Z,5.20
2023-03-28T04:54:22.730Z,5.30
2023-03-28T04:56:50.177Z,5.30
2023-03-28T04:59:18.282Z,5.30
2023-03-28T05:01:49.476Z,5.30
2023-03-28T05:04:21.343Z,5.20
2023-03-28T05:06:50.046Z,5.40
2023-03-28T05:09:17.521Z,5.30
2023-03-28T05:11:46.397Z,5.30
2023-03-28T05:14:13.254Z,5.30
2023-03-28T05:16:40.038Z,5.30
2023-03-28T05:19:07.044Z,5.00
2023-03-28T05:21:33.808Z,5.20
2023-03-28T05:24:00.851Z,5.40
2023-03-28T05:26:28.109Z,5.20
2023-03-28T05:28:56.607Z,5.20
2023-03-28T05:31:26.026Z,5.30
2023-03-28T05:33:52.813Z,5.30
2023-03-28T05:36:19.624Z,5.00
2023-03-28T05:38:46.522Z,5.20
2023-03-28T05:41:13.299Z,5.00
2023-03-28T05:43:40.193Z,5.10
2023-03-28T05:46:07.261Z,5.00
2023-03-28T05:48:34.038Z,5.10
2023-03-28T05:51:01.104Z,5.10
2023-03-28T05:53:28.128Z,5.30
2023-03-28T05:55:54.874Z,5.30
2023-03-28T05:58:21.572Z,5.10
2023-03-28T06:00:48.327Z,5.20
2023-03-28T06:03:16.592Z,5.20
2023-03-28T06:05:44.510Z,5.30
2023-03-28T06:08:11.720Z,5.10
2023-03-28T06:10:38.833Z,5.30
2023-03-28T06:13:05.645Z,5.10
2023-03-28T06:15:33.042Z,5.20
2023-03-28T06:18:00.052Z,5.10
2023-03-28T06:20:27.076Z,5.20
2023-03-28T06:22:53.809Z,5.40
2023-03-28T06:25:20.684Z,5.50
2023-03-28T06:27:47.395Z,5.50
2023-03-28T06:30:14.676Z,5.50
2023-03-28T06:32:41.403Z,5.60
2023-03-28T06:35:08.681Z,5.50
2023-03-28T06:37:35.422Z,5.70
2023-03-28T06:40:03.154Z,5.70
2023-03-28T06:42:29.923Z,5.60
2023-03-28T06:44:56.692Z,5.80
2023-03-28T06:47:23.440Z,5.90
2023-03-28T06:49:50.299Z,6.10
2023-03-28T06:52:17.365Z,6.00
2023-03-28T06:54:45.327Z,6.00
2023-03-28T06:57:13.411Z,6.00
2023-03-28T06:59:40.207Z,6.10
2023-03-28T07:02:07.142Z,6.40
2023-03-28T07:04:34.977Z,6.00
2023-03-28T07:07:01.842Z,6.40
2023-03-28T07:09:28.654Z,6.40
2023-03-28T07:11:55.557Z,6.40
2023-03-28T07:14:22.312Z,6.70
2023-03-28T07:16:49.159Z,6.60
2023-03-28T07:19:16.082Z,6.70
2023-03-28T07:21:42.891Z,6.80
2023-03-28T07:24:09.772Z,6.50
2023-03-28T07:26:36.494Z,6.80
2023-03-28T07:29:03.356Z,6.90
2023-03-28T07:31:30.238Z,6.90
2023-03-28T07:33:58.190Z,6.90
2023-03-28T07:36:27.398Z,6.80
2023-03-28T07:38:54.231Z,7.10
2023-03-28T07:41:22.638Z,6.90
2023-03-28T07:43:49.646Z,7.10
2023-03-28T07:46:16.906Z,7.10
2023-03-28T07:48:46.389Z,7.00
2023-03-28T07:51:16.027Z,7.20
2023-03-28T07:53:43.173Z,7.50
2023-03-28T07:56:11.647Z,7.40
2023-03-28T07:58:42.386Z,7.50
2023-03-28T08:01:18.831Z,7.50
2023-03-28T08:03:45.954Z,7.80
2023-03-28T08:06:28.524Z,7.60
2023-03-28T08:08:55.962Z,7.70
2023-03-28T08:11:22.912Z,7.90
2023-03-28T08:13:49.617Z,7.70
2023-03-28T08:16:16.463Z,7.60
2023-03-28T08:18:43.226Z,7.60
2023-03-28T08:21:10.060Z,7.50
2023-03-28T08:23:36.875Z,7.40
2023-03-28T08:26:06.160Z,7.60
2023-03-28T08:28:35.024Z,7.20
2023-03-28T08:31:02.795Z,7.30
2023-03-28T08:33:29.886Z,7.50
2023-03-28T08:35:56.967Z,7.60
2023-03-28T08:38:24.143Z,7.40
2023-03-28T08:41:14.662Z,7.40
2023-03-28T08:43:44.256Z,7.50
2023-03-28T08:46:16.005Z,7.60
2023-03-28T08:48:45.926Z,7.70
2023-03-28T08:51:24.534Z,7.40
2023-03-28T08:54:33.598Z,7.50
2023-03-28T08:57:04.094Z,7.70
2023-03-28T08:59:45.793Z,7.70
2023-03-28T09:02:26.740Z,7.80
2023-03-28T09:04:58.014Z,7.60
2023-03-28T09:07:40.724Z,7.80
2023-03-28T09:10:16.791Z,7.70
2023-03-28T09:13:10.341Z,7.90
2023-03-28T09:15:43.485Z,7.70
2023-03-28T09:18:31.863Z,8.00
2023-03-28T09:21:23.651Z,7.90
2023-03-28T09:24:19.071Z,7.90
2023-03-28T09:27:00.434Z,8.20
2023-03-28T09:29:28.701Z,8.30
2023-03-28T09:32:01.914Z,8.40
2023-03-28T09:34:45.572Z,8.60
2023-03-28T09:37:35.379Z,8.50
2023-03-28T09:40:14.374Z,8.80
2023-03-28T09:43:13.042Z,8.90
2023-03-28T09:45:46.604Z,9.20
2023-03-28T09:48:25.673Z,9.10
2023-03-28T09:50:52.787Z,9.10
2023-03-28T09:53:38.124Z,9.10
2023-03-28T09:56:19.998Z,9.10
2023-03-28T09:58:51.243Z,9.20
2023-03-28T10:01:24.343Z,9.10
2023-03-28T10:03:56.752Z,9.20
2023-03-28T10:06:32.647Z,9.40
2023-03-28T10:09:24.882Z,9.50
2023-03-28T10:11:56.588Z,9.50
2023-03-28T10:14:30.301Z,9.60
2023-03-28T10:17:02.505Z,9.80
2023-03-28T10:19:35.879Z,9.50
2023-03-28T10:22:07.509Z,9.40
2023-03-28T10:24:35.185Z,9.40
2023-03-28T10:27:28.740Z,9.70
2023-03-28T10:29:57.025Z,9.50
2023-03-28T10:32:31.269Z,9.60
2023-03-28T10:35:16.952Z,10.10
2023-03-28T10:37:48.453Z,9.90
2023-03-28T10:40:18.210Z,9.90
2023-03-28T10:42:46.431Z,9.80
2023-03-28T10:45:42.401Z,10.00
2023-03-28T10:48:21.285Z,9.90
2023-03-28T10:50:54.528Z,10.20
2023-03-28T10:53:32.388Z,10.00
2023-03-28T10:56:06.072Z,10.00
2023-03-28T10:58:39.565Z,10.20
2023-03-28T11:01:19.388Z,10.00
2023-03-28T11:03:52.106Z,10.40
2023-03-28T11:06:53.682Z,10.60
2023-03-28T11:09:40.056Z,10.70
2023-03-28T11:12:06.866Z,10.50
2023-03-28T11:15:00.420Z,10.40
2023-03-28T11:17:27.128Z,10.70
2023-03-28T11:20:30.916Z,10.70
2023-03-28T11:23:26.628Z,10.80
2023-03-28T11:26:08.326Z,10.50
2023-03-28T11:28:40.941Z,10.40
2023-03-28T11:31:15.271Z,10.80
2023-03-28T11:33:48.536Z,10.80
2023-03-28T11:36:21.987Z,11.20
2023-03-28T11:38:58.885Z,11.20
2023-03-28T11:41:33.971Z,11.10
2023-03-28T11:44:00.683Z,10.80
2023-03-28T11:46:39.260Z,10.70
2023-03-28T11:49:14.096Z,10.80
2023-03-28T11:51:47.205Z,11.10
2023-03-28T11:54:18.761Z,11.20
2023-03-28T11:57:00.847Z,11.20
2023-03-28T11:59:32.325Z,11.30
2023-03-28T12:02:37.803Z,11.10
2023-03-28T12:05:32.779Z,11.10
2023-03-28T12:08:18.806Z,11.00
2023-03-28T12:10:53.509Z,11.40
2023-03-28T12:13:31.614Z,11.20
2023-03-28T12:16:24.109Z,11.20
2023-03-28T12:18:58.725Z,11.40
2023-03-28T12:21:41.579Z,11.90
2023-03-28T12:24:25.347Z,11.70
2023-03-28T12:26:58.288Z,11.80
2023-03-28T12:29:33.018Z,11.80
2023-03-28T12:32:08.881Z,11.70
2023-03-28T12:34:43.435Z,11.60
2023-03-28T12:37:33.240Z,11.70
2023-03-28T12:40:34.115Z,11.70
2023-03-28T12:43:01.383Z,11.50
2023-03-28T12:45:35.780Z,11.70
2023-03-28T12:48:27.785Z,11.80
2023-03-28T12:51:12.996Z,12.00
2023-03-28T12:53:59.955Z,12.10
2023-03-28T12:56:26.820Z,11.90
2023-03-28T12:58:54.073Z,12.00
2023-03-28T13:01:34.380Z,12.10
2023-03-28T13:04:14.069Z,11.90
2023-03-28T13:06:48.441Z,12.10
2023-03-28T13:09:19.683Z,12.10
2023-03-28T13:11:53.437Z,12.20
2023-03-28T13:14:42.519Z,12.60
2023-03-28T13:17:22.602Z,12.40
2023-03-28T13:19:55.796Z,12.30
2023-03-28T13:22:25.609Z,12.20
2023-03-28T13:24:52.862Z,12.40
2023-03-28T13:27:38.088Z,12.30
2023-03-28T13:30:19.661Z,12.20
2023-03-28T13:32:49.859Z,12.50
2023-03-28T13:35:48.916Z,12.40
2023-03-28T13:38:33.104Z,12.20
2023-03-28T13:41:06.534Z,12.30
2023-03-28T13:43:46.633Z,12.50
2023-03-28T13:46:23.309Z,12.50
2023-03-28T13:49:02.140Z,12.30
2023-03-28T13:51:37.985Z,12.40
2023-03-28T13:54:04.879Z,12.50
2023-03-28T13:56:34.925Z,12.30
2023-03-28T13:59:06.914Z,12.50
2023-03-28T14:02:00.114Z,12.40
2023-03-28T14:04:28.610Z,12.60
2023-03-28T14:06:56.513Z,12.60
2023-03-28T14:09:29.358Z,12.60
2023-03-28T14:12:06.086Z,12.50
2023-03-28T14:14:42.685Z,12.70
2023-03-28T14:17:23.292Z,12.50
2023-03-28T14:19:59.864Z,12.50
2023-03-28T14:22:29.054Z,12.70
2023-03-28T14:25:11.759Z,12.60
2023-03-28T14:27:52.345Z,12.70
2023-03-28T14:30:36.884Z,12.70
2023-03-28T14:33:19.510Z,12.80
2023-03-28T14:36:00.035Z,13.00
2023-03-28T14:38:29.355Z,13.10
2023-03-28T14:41:27.464Z,13.20
2023-03-28T14:43:56.282Z,13.10
2023-03-28T14:46:29.078Z,12.90
2023-03-28T14:48:59.423Z,12.80
2023-03-28T14:51:26.515Z,12.90
2023-03-28T14:53:53.928Z,12.70
2023-03-28T14:56:26.533Z,12.80
2023-03-28T14:58:59.132Z,12.80
2023-03-28T15:01:26.757Z,12.80
2023-03-28T15:04:05.170Z,12.80
2023-03-28T15:06:33.963Z,12.70
2023-03-28T15:09:10.028Z,13.10
2023-03-28T15:11:41.194Z,12.80
2023-03-28T15:14:17.071Z,12.90
2023-03-28T15:16:46.598Z,13.00
2023-03-28T15:19:28.440Z,12.80
2023-03-28T15:21:59.067Z,13.20
2023-03-28T15:24:27.804Z,13.00
2023-03-28T15:26:58.876Z,12.90
2023-03-28T15:29:26.241Z,12.90
2023-03-28T15:31:58.215Z,12.90
2023-03-28T15:34:29.237Z,13.10
2023-03-28T15:37:06.808Z,12.70
2023-03-28T15:39:35.302Z,12.80
2023-03-28T15:42:20.265Z,12.70
2023-03-28T15:45:16.213Z,12.80
2023-03-28T15:47:43.035Z,12.70
2023-03-28T15:50:24.261Z,12.60
2023-03-28T15:52:59.956Z,12.70
2023-03-28T15:55:27.764Z,12.60
2023-03-28T15:57:56.548Z,12.40
2023-03-28T16:00:50.857Z,12.40
2023-03-28T16:03:25.180Z,12.50
2023-03-28T16:06:09.793Z,12.50
2023-03-28T16:08:44.019Z,12.30
2023-03-28T16:11:23.270Z,12.40
2023-03-28T16:13:50.979Z,12.40
2023-03-28T16:16:24.656Z,12.30
2023-03-28T16:18:51.755Z,12.20
2023-03-28T16:21:19.591Z,12.40
2023-03-28T16:23:46.772Z,12.60
2023-03-28T16:26:14.369Z,12.30
2023-03-28T16:28:41.313Z,12.70
2023-03-28T16:31:13.635Z,12.50
2023-03-28T16:33:40.422Z,12.30
2023-03-28T16:36:07.707Z,12.60
2023-03-28T16:38:34.472Z,12.20
2023-03-28T16:41:01.431Z,12.60
2023-03-28T16:43:28.187Z,12.60
2023-03-28T16:45:54.986Z,12.40
2023-03-28T16:48:21.792Z,12.40
2023-03-28T16:50:53.429Z,12.50
2023-03-28T16:53:21.004Z,12.70
2023-03-28T16:55:48.866Z,12.60
2023-03-28T16:58:15.819Z,12.60
2023-03-28T17:00:42.775Z,12.50
2023-03-28T17:03:09.644Z,12.60
2023-03-28T17:05:37.509Z,12.60
2023-03-28T17:08:04.594Z,12.70
2023-03-28T17:10:31.301Z,12.60
2023-03-28T17:13:02.312Z,12.60
2023-03-28T17:15:31.963Z,12.50
2023-03-28T17:17:59.321Z,12.50
2023-03-28T17:20:26.512Z,12.60
2023-03-28T17:22:53.410Z,12.50
2023-03-28T17:25:20.294Z,12.40
2023-03-28T17:27:47.105Z,12.30
2023-03-28T17:30:14.367Z,12.60
2023-03-28T17:32:41.302Z,12.50
2023-03-28T17:35:09.220Z,12.50
2023-03-28T17:37:35.976Z,12.50
2023-03-28T17:40:03.604Z,12.30
2023-03-28T17:42:30.425Z,12.20
2023-03-28T17:44:58.327Z,12.60
2023-03-28T17:47:25.640Z,12.20
2023-03-28T17:49:52.574Z,12.10
2023-03-28T17:52:19.290Z,12.00
2023-03-28T17:54:46.084Z,12.10
2023-03-28T17:57:13.025Z,12.00
2023-03-28T17:59:39.862Z,12.20
2023-03-28T18:02:07.014Z,12.10
2023-03-28T18:04:33.971Z,12.20
2023-03-28T18:07:00.872Z,12.10
2023-03-28T18:09:27.679Z,12.10
2023-03-28T18:11:54.424Z,12.10
2023-03-28T18:14:21.237Z,12.20
2023-03-28T18:16:48.595Z,12.10
2023-03-28T18:19:18.539Z,12.10
2023-03-28T18:21:46.681Z,12.40
2023-03-28T18:24:14.047Z,12.20
2023-03-28T18:26:41.128Z,12.10
2023-03-28T18:29:08.009Z,12.40
2023-03-28T18:31:36.674Z,12.30
2023-03-28T18:34:05.119Z,12.40
2023-03-28T18:36:32.692Z,12.20
2023-03-28T18:38:59.451Z,12.20
2023-03-28T18:41:27.428Z,12.20
2023-03-28T18:43:54.249Z,12.40
2023-03-28T18:46:21.200Z,12.10
2023-03-28T18:48:48.065Z,11.90
2023-03-28T18:51:14.824Z,12.10
2023-03-28T18:53:43.164Z,11.90
2023-03-28T18:56:10.761Z,11.90
2023-03-28T18:58:38.351Z,12.20
2023-03-28T19:01:06.691Z,12.10
2023-03-28T19:03:40.360Z,12.20
2023-03-28T19:06:12.348Z,11.70
2023-03-28T19:08:39.267Z,11.70
2023-03-28T19:11:08.712Z,11.70
2023-03-28T19:13:35.610Z,11.90
2023-03-28T19:16:05.725Z,12.00
2023-03-28T19:18:33.554Z,11.80
2023-03-28T19:21:01.137Z,11.90
2023-03-28T19:23:28.865Z,11.70
2023-03-28T19:25:56.354Z,12.00
2023-03-28T19:28:23.645Z,12.00
2023-03-28T19:30:58.200Z,11.90
2023-03-28T19:33:25.253Z,12.10
2023-03-28T19:35:52.131Z,11.90
2023-03-28T19:38:19.768Z,11.90
2023-03-28T19:40:47.313Z,11.70
2023-03-28T19:43:14.660Z,11.40
2023-03-28T19:45:41.570Z,11.30
2023-03-28T19:48:08.369Z,11.30
2023-03-28T19:50:36.654Z,11.10
2023-03-28T19:53:04.182Z,10.90
2023-03-28T19:55:30.928Z,10.90
2023-03-28T19:57:58.270Z,10.70
2023-03-28T20:00:25.499Z,11.10
2023-03-28T20:02:52.383Z,10.80
2023-03-28T20:05:19.279Z,10.90
2023-03-28T20:07:46.087Z,10.80
2023-03-28T20:10:12.894Z,10.60
2023-03-28T20:12:41.042Z,10.80
2023-03-28T20:15:09.161Z,10.50
2023-03-28T20:17:36.280Z,10.50
2023-03-28T20:20:04.842Z,10.60
2023-03-28T20:22:34.257Z,10.50
2023-03-28T20:25:01.446Z,10.50
2023-03-28T20:27:29.213Z,10.70
2023-03-28T20:29:56.047Z,10.50
2023-03-28T20:32:22.888Z,10.40
2023-03-28T20:34:49.626Z,10.90
2023-03-28T20:37:17.469Z,10.60
2023-03-28T20:39:48.234Z,10.90
2023-03-28T20:42:14.987Z,10.80
2023-03-28T20:44:41.694Z,10.60
2023-03-28T20:47:10.595Z,10.70
2023-03-28T20:49:38.439Z,10.30
2023-03-28T20:52:07.902Z,10.60
2023-03-28T20:54:35.029Z,10.40
2023-03-28T20:57:02.189Z,10.70
2023-03-28T20:59:28.955Z,10.60
2023-03-28T21:01:55.832Z,10.60
2023-03-28T21:04:22.819Z,10.70
2023-03-28T21:06:50.489Z,10.50
2023-03-28T21:09:18.095Z,10.60
2023-03-28T21:11:45.720Z,10.90
2023-03-28T21:14:14.056Z,10.50
2023-03-28T21:16:41.891Z,10.80
2023-03-28T21:19:09.541Z,10.60
2023-03-28T21:21:36.600Z,10.50
2023-03-28T21:24:04.424Z,10.70
2023-03-28T21:26:31.751Z,10.40
2023-03-28T21:28:59.369Z,10.50
2023-03-28T21:31:28.492Z,10.40
2023-03-28T21:33:57.330Z,10.20
2023-03-28T21:36:25.196Z,10.50
2023-03-28T21:38:51.961Z,10.30
2023-03-28T21:41:18.940Z,10.40
2023-03-28T21:43:47.647Z,10.00
2023-03-28T21:46:15.469Z,10.20
2023-03-28T21:48:44.616Z,10.20
2023-03-28T21:51:12.042Z,10.20
2023-03-28T21:53:39.622Z,10.40
2023-03-28T21:56:06.894Z,10.20
2023-03-28T21:58:34.209Z,10.30
2023-03-28T22:01:02.885Z,10.30
2023-03-28T22:03:30.658Z,10.00
2023-03-28T22:05:57.645Z,10.20
2023-03-28T22:08:24.500Z,10.10
2023-03-28T22:10:58.418Z,10.20
2023-03-28T22:13:25.432Z,10.00
2023-03-28T22:15:52.782Z,10.20
2023-03-28T22:18:20.551Z,10.40
2023-03-28T22:20:53.439Z,10.20
2023-03-28T22:23:22.397Z,10.30
2023-03-28T22:25:49.799Z,10.40
2023-03-28T22:28:17.011Z,10.20
2023-03-28T22:30:44.933Z,10.10
2023-03-28T22:33:13.444Z,10.20
2023-03-28T22:35:40.283Z,10.20
2023-03-28T22:38:07.148Z,9.80
2023-03-28T22:40:34.256Z,9.80
2023-03-28T22:43:01.382Z,9.70
2023-03-28T22:45:28.612Z,9.80
2023-03-28T22:48:00.011Z,9.70
2023-03-28T22:50:28.042Z,9.80
2023-03-28T22:52:55.410Z,9.90
2023-03-28T22:55:23.654Z,9.70
2023-03-28T22:57:52.382Z,9.70
2023-03-28T23:00:23.187Z,10.00
2023-03-28T23:02:51.719Z,10.00
2023-03-28T23:05:19.443Z,9.70
2023-03-28T23:07:46.510Z,9.90
2023-03-28T23:10:16.061Z,9.80
2023-03-28T23:12:43.535Z,10.00
2023-03-28T23:15:11.113Z,9.50
2023-03-28T23:17:38.297Z,9.70
2023-03-28T23:20:13.010Z,9.60
2023-03-28T23:22:41.483Z,9.70
2023-03-28T23:25:09.166Z,9.80
2023-03-28T23:27:35.961Z,9.70
2023-03-28T23:30:03.378Z,9.70
2023-03-28T23:32:30.375Z,9.50
2023-03-28T23:34:57.096Z,9.60
2023-03-28T23:37:27.542Z,9.90
2023-03-28T23:39:55.442Z,9.90
2023-03-28T23:42:23.900Z,9.40
2023-03-28T23:44:51.738Z,9.70
2023-03-28T23:47:20.420Z,9.80
2023-03-28T23:49:47.755Z,9.40
2023-03-28T23:52:16.133Z,9.40
2023-03-28T23:54:43.053Z,9.40
2023-03-28T23:57:10.257Z,9.50
2023-03-28T23:59:37.121Z,9.40
